sensor_id;sensor_type;location;lat;lon;timestamp;temperature;humidity
55828;DHT22;41758;51.992;5.890;2023-04-10T00:01:07;15.10;49.20
55828;DHT22;41758;51.992;5.890;2023-04-10T00:03:33;15.00;49.20
55828;DHT22;41758;51.992;5.890;2023-04-10T00:05:59;15.00;49.20
55828;DHT22;41758;51.992;5.890;2023-04-10T00:08:25;15.00;49.20
55828;DHT22;41758;51.992;5.890;2023-04-10T00:10:50;15.00;49.20
55828;DHT22;41758;51.992;5.890;2023-04-10T00:13:19;14.90;49.30
55828;DHT22;41758;51.992;5.890;2023-04-10T00:15:45;14.90;49.30
55828;DHT22;41758;51.992;5.890;2023-04-10T00:18:11;14.90;49.40
55828;DHT22;41758;51.992;5.890;2023-04-10T00:20:36;14.80;49.40
55828;DHT22;41758;51.992;5.890;2023-04-10T00:23:02;14.90;49.40
55828;DHT22;41758;51.992;5.890;2023-04-10T00:25:28;14.80;49.50
55828;DHT22;41758;51.992;5.890;2023-04-10T00:27:53;14.80;49.60
55828;DHT22;41758;51.992;5.890;2023-04-10T00:30:19;14.80;49.60
55828;DHT22;41758;51.992;5.890;2023-04-10T00:32:45;14.70;49.70
55828;DHT22;41758;51.992;5.890;2023-04-10T00:35:11;14.70;49.70
55828;DHT22;41758;51.992;5.890;2023-04-10T00:37:37;14.70;49.80
55828;DHT22;41758;51.992;5.890;2023-04-10T00:40:03;14.70;49.80
55828;DHT22;41758;51.992;5.890;2023-04-10T00:42:31;14.60;49.80
55828;DHT22;41758;51.992;5.890;2023-04-10T00:44:57;14.60;49.80
55828;DHT22;41758;51.992;5.890;2023-04-10T00:47:22;14.60;49.90
55828;DHT22;41758;51.992;5.890;2023-04-10T00:49:49;14.60;49.90
55828;DHT22;41758;51.992;5.890;2023-04-10T00:52:15;14.50;50.00
55828;DHT22;41758;51.992;5.890;2023-04-10T00:54:41;14.50;50.00
55828;DHT22;41758;51.992;5.890;2023-04-10T00:57:07;14.50;50.00
55828;DHT22;41758;51.992;5.890;2023-04-10T00:59:33;14.50;50.00
55828;DHT22;41758;51.992;5.890;2023-04-10T01:01:59;14.40;50.00
55828;DHT22;41758;51.992;5.890;2023-04-10T01:04:25;14.40;50.10
55828;DHT22;41758;51.992;5.890;2023-04-10T01:07:08;14.40;50.10
55828;DHT22;41758;51.992;5.890;2023-04-10T01:09:41;14.40;50.10
55828;DHT22;41758;51.992;5.890;2023-04-10T01:12:24;14.40;50.20
55828;DHT22;41758;51.992;5.890;2023-04-10T01:15:10;14.30;50.20
55828;DHT22;41758;51.992;5.890;2023-04-10T01:18:03;14.30;50.30
55828;DHT22;41758;51.992;5.890;2023-04-10T01:20:36;14.30;50.30
55828;DHT22;41758;51.992;5.890;2023-04-10T01:26:00;14.30;50.30
55828;DHT22;41758;51.992;5.890;2023-04-10T01:32:04;14.20;50.40
55828;DHT22;41758;51.992;5.890;2023-04-10T01:34:15;14.20;50.40
55828;DHT22;41758;51.992;5.890;2023-04-10T01:37:07;14.20;50.50
55828;DHT22;41758;51.992;5.890;2023-04-10T01:39:36;14.20;50.40
55828;DHT22;41758;51.992;5.890;2023-04-10T01:42:05;14.20;50.60
55828;DHT22;41758;51.992;5.890;2023-04-10T01:44:43;14.10;50.60
55828;DHT22;41758;51.992;5.890;2023-04-10T01:47:15;14.10;50.70
55828;DHT22;41758;51.992;5.890;2023-04-10T01:49:45;14.10;50.60
55828;DHT22;41758;51.992;5.890;2023-04-10T01:52:12;14.10;50.70
55828;DHT22;41758;51.992;5.890;2023-04-10T01:54:39;14.10;50.70
55828;DHT22;41758;51.992;5.890;2023-04-10T01:57:05;14.10;50.70
55828;DHT22;41758;51.992;5.890;2023-04-10T01:59:50;14.10;50.80
55828;DHT22;41758;51.992;5.890;2023-04-10T02:02:16;14.10;50.80
55828;DHT22;41758;51.992;5.890;2023-04-10T02:04:41;14.10;50.80
55828;DHT22;41758;51.992;5.890;2023-04-10T02:07:42;14.10;50.90
55828;DHT22;41758;51.992;5.890;2023-04-10T02:11:06;14.10;50.80
55828;DHT22;41758;51.992;5.890;2023-04-10T02:13:23;14.20;50.80
55828;DHT22;41758;51.992;5.890;2023-04-10T02:15:54;14.20;50.90
55828;DHT22;41758;51.992;5.890;2023-04-10T02:18:21;14.20;50.90
55828;DHT22;41758;51.992;5.890;2023-04-10T02:20:47;14.20;50.90
55828;DHT22;41758;51.992;5.890;2023-04-10T02:23:15;14.20;50.90
55828;DHT22;41758;51.992;5.890;2023-04-10T02:25:41;14.20;50.90
55828;DHT22;41758;51.992;5.890;2023-04-10T02:28:07;14.20;50.80
55828;DHT22;41758;51.992;5.890;2023-04-10T02:30:34;14.10;50.90
55828;DHT22;41758;51.992;5.890;2023-04-10T02:33:00;14.10;50.80
55828;DHT22;41758;51.992;5.890;2023-04-10T02:35:27;14.10;50.90
55828;DHT22;41758;51.992;5.890;2023-04-10T02:37:54;14.10;50.90
55828;DHT22;41758;51.992;5.890;2023-04-10T02:40:20;14.10;50.90
55828;DHT22;41758;51.992;5.890;2023-04-10T02:42:54;14.10;51.00
55828;DHT22;41758;51.992;5.890;2023-04-10T02:45:20;14.00;51.00
55828;DHT22;41758;51.992;5.890;2023-04-10T02:47:46;14.00;51.00
55828;DHT22;41758;51.992;5.890;2023-04-10T02:50:12;14.00;51.00
55828;DHT22;41758;51.992;5.890;2023-04-10T02:52:42;14.00;51.00
55828;DHT22;41758;51.992;5.890;2023-04-10T02:55:08;14.00;51.10
55828;DHT22;41758;51.992;5.890;2023-04-10T02:57:36;13.90;51.00
55828;DHT22;41758;51.992;5.890;2023-04-10T03:00:02;13.90;51.10
55828;DHT22;41758;51.992;5.890;2023-04-10T03:02:36;13.90;51.10
55828;DHT22;41758;51.992;5.890;2023-04-10T03:05:12;13.90;51.10
55828;DHT22;41758;51.992;5.890;2023-04-10T03:07:38;13.80;51.10
55828;DHT22;41758;51.992;5.890;2023-04-10T03:10:05;13.80;51.20
55828;DHT22;41758;51.992;5.890;2023-04-10T03:12:31;13.70;51.20
55828;DHT22;41758;51.992;5.890;2023-04-10T03:14:57;13.80;51.20
55828;DHT22;41758;51.992;5.890;2023-04-10T03:17:22;13.70;51.20
55828;DHT22;41758;51.992;5.890;2023-04-10T03:19:48;13.70;51.30
55828;DHT22;41758;51.992;5.890;2023-04-10T03:22:13;13.60;51.40
55828;DHT22;41758;51.992;5.890;2023-04-10T03:24:39;13.60;51.40
55828;DHT22;41758;51.992;5.890;2023-04-10T03:27:05;13.60;51.50
55828;DHT22;41758;51.992;5.890;2023-04-10T03:29:32;13.60;51.40
55828;DHT22;41758;51.992;5.890;2023-04-10T03:31:58;13.50;51.50
55828;DHT22;41758;51.992;5.890;2023-04-10T03:34:25;13.50;51.50
55828;DHT22;41758;51.992;5.890;2023-04-10T03:36:51;13.50;51.60
55828;DHT22;41758;51.992;5.890;2023-04-10T03:39:17;13.40;51.60
55828;DHT22;41758;51.992;5.890;2023-04-10T03:41:42;13.40;51.60
55828;DHT22;41758;51.992;5.890;2023-04-10T03:44:08;13.40;51.60
55828;DHT22;41758;51.992;5.890;2023-04-10T03:46:34;13.40;51.60
55828;DHT22;41758;51.992;5.890;2023-04-10T03:49:00;13.40;51.60
55828;DHT22;41758;51.992;5.890;2023-04-10T03:51:26;13.30;51.70
55828;DHT22;41758;51.992;5.890;2023-04-10T03:53:52;13.30;51.70
55828;DHT22;41758;51.992;5.890;2023-04-10T03:56:18;13.30;51.70
55828;DHT22;41758;51.992;5.890;2023-04-10T03:58:45;13.30;51.80
55828;DHT22;41758;51.992;5.890;2023-04-10T04:01:11;13.30;51.80
55828;DHT22;41758;51.992;5.890;2023-04-10T04:03:54;13.30;51.80
55828;DHT22;41758;51.992;5.890;2023-04-10T04:06:45;13.20;51.80
55828;DHT22;41758;51.992;5.890;2023-04-10T04:09:31;13.10;51.90
55828;DHT22;41758;51.992;5.890;2023-04-10T04:12:20;13.10;52.00
55828;DHT22;41758;51.992;5.890;2023-04-10T04:14:46;13.10;52.10
55828;DHT22;41758;51.992;5.890;2023-04-10T04:17:17;13.10;52.10
55828;DHT22;41758;51.992;5.890;2023-04-10T04:20:01;13.10;52.10
55828;DHT22;41758;51.992;5.890;2023-04-10T04:22:46;13.00;52.10
55828;DHT22;41758;51.992;5.890;2023-04-10T04:25:19;13.00;52.20
55828;DHT22;41758;51.992;5.890;2023-04-10T04:27:59;13.00;52.20
55828;DHT22;41758;51.992;5.890;2023-04-10T04:30:45;13.00;52.30
55828;DHT22;41758;51.992;5.890;2023-04-10T04:33:25;12.90;52.30
55828;DHT22;41758;51.992;5.890;2023-04-10T04:35:58;12.90;52.30
55828;DHT22;41758;51.992;5.890;2023-04-10T04:38:35;12.90;52.40
55828;DHT22;41758;51.992;5.890;2023-04-10T04:41:27;12.90;52.40
55828;DHT22;41758;51.992;5.890;2023-04-10T04:44:12;12.80;52.50
55828;DHT22;41758;51.992;5.890;2023-04-10T04:46:51;12.80;52.50
55828;DHT22;41758;51.992;5.890;2023-04-10T04:49:40;12.80;52.60
55828;DHT22;41758;51.992;5.890;2023-04-10T04:52:20;12.80;52.70
55828;DHT22;41758;51.992;5.890;2023-04-10T04:55:01;12.80;52.70
55828;DHT22;41758;51.992;5.890;2023-04-10T04:57:35;12.80;52.70
55828;DHT22;41758;51.992;5.890;2023-04-10T05:00:04;12.80;52.70
55828;DHT22;41758;51.992;5.890;2023-04-10T05:02:48;12.80;52.70
55828;DHT22;41758;51.992;5.890;2023-04-10T05:05:33;12.80;52.80
55828;DHT22;41758;51.992;5.890;2023-04-10T05:08:22;12.80;52.80
55828;DHT22;41758;51.992;5.890;2023-04-10T05:11:08;12.80;52.90
55828;DHT22;41758;51.992;5.890;2023-04-10T05:13:53;12.70;52.90
55828;DHT22;41758;51.992;5.890;2023-04-10T05:16:39;12.80;52.90
55828;DHT22;41758;51.992;5.890;2023-04-10T05:19:23;12.80;53.00
55828;DHT22;41758;51.992;5.890;2023-04-10T05:22:14;12.80;53.00
55828;DHT22;41758;51.992;5.890;2023-04-10T05:24:53;12.80;53.10
55828;DHT22;41758;51.992;5.890;2023-04-10T05:27:24;12.90;53.10
55828;DHT22;41758;51.992;5.890;2023-04-10T05:30:10;12.90;53.10
55828;DHT22;41758;51.992;5.890;2023-04-10T05:32:54;12.90;53.10
55828;DHT22;41758;51.992;5.890;2023-04-10T05:35:27;13.00;53.10
55828;DHT22;41758;51.992;5.890;2023-04-10T05:38:12;13.00;53.10
55828;DHT22;41758;51.992;5.890;2023-04-10T05:40:56;13.10;53.10
55828;DHT22;41758;51.992;5.890;2023-04-10T05:43:47;13.10;53.10
55828;DHT22;41758;51.992;5.890;2023-04-10T05:46:28;13.10;53.10
55828;DHT22;41758;51.992;5.890;2023-04-10T05:49:22;13.20;53.10
55828;DHT22;41758;51.992;5.890;2023-04-10T05:52:20;13.30;53.00
55828;DHT22;41758;51.992;5.890;2023-04-10T05:55:04;13.30;53.00
55828;DHT22;41758;51.992;5.890;2023-04-10T05:57:30;13.30;53.00
55828;DHT22;41758;51.992;5.890;2023-04-10T06:00:17;13.30;53.00
55828;DHT22;41758;51.992;5.890;2023-04-10T06:03:03;13.40;53.10
55828;DHT22;41758;51.992;5.890;2023-04-10T06:05:30;13.50;53.10
55828;DHT22;41758;51.992;5.890;2023-04-10T06:08:01;13.50;53.00
55828;DHT22;41758;51.992;5.890;2023-04-10T06:10:28;13.60;53.00
55828;DHT22;41758;51.992;5.890;2023-04-10T06:12:55;13.70;52.90
55828;DHT22;41758;51.992;5.890;2023-04-10T06:15:22;13.70;52.90
55828;DHT22;41758;51.992;5.890;2023-04-10T06:17:48;13.80;52.90
55828;DHT22;41758;51.992;5.890;2023-04-10T06:20:14;13.80;52.80
55828;DHT22;41758;51.992;5.890;2023-04-10T06:22:39;13.90;52.80
55828;DHT22;41758;51.992;5.890;2023-04-10T06:25:05;14.00;52.80
55828;DHT22;41758;51.992;5.890;2023-04-10T06:27:33;14.10;52.80
55828;DHT22;41758;51.992;5.890;2023-04-10T06:30:00;14.10;52.80
55828;DHT22;41758;51.992;5.890;2023-04-10T06:32:26;14.20;52.80
55828;DHT22;41758;51.992;5.890;2023-04-10T06:34:51;14.30;52.50
55828;DHT22;41758;51.992;5.890;2023-04-10T06:37:17;14.40;52.30
55828;DHT22;41758;51.992;5.890;2023-04-10T06:39:43;14.50;52.40
55828;DHT22;41758;51.992;5.890;2023-04-10T06:42:09;14.60;52.20
55828;DHT22;41758;51.992;5.890;2023-04-10T06:45:01;14.70;52.20
55828;DHT22;41758;51.992;5.890;2023-04-10T06:47:27;14.70;52.20
55828;DHT22;41758;51.992;5.890;2023-04-10T06:49:53;14.80;52.10
55828;DHT22;41758;51.992;5.890;2023-04-10T06:52:19;14.90;52.10
55828;DHT22;41758;51.992;5.890;2023-04-10T06:54:45;15.00;52.00
55828;DHT22;41758;51.992;5.890;2023-04-10T06:57:10;15.10;52.00
55828;DHT22;41758;51.992;5.890;2023-04-10T06:59:36;15.10;51.60
55828;DHT22;41758;51.992;5.890;2023-04-10T07:02:02;15.20;51.70
55828;DHT22;41758;51.992;5.890;2023-04-10T07:04:28;15.30;51.70
55828;DHT22;41758;51.992;5.890;2023-04-10T07:06:54;15.30;51.50
55828;DHT22;41758;51.992;5.890;2023-04-10T07:09:20;15.40;51.50
55828;DHT22;41758;51.992;5.890;2023-04-10T07:11:45;15.50;51.30
55828;DHT22;41758;51.992;5.890;2023-04-10T07:14:11;15.60;51.40
55828;DHT22;41758;51.992;5.890;2023-04-10T07:16:36;15.60;51.30
55828;DHT22;41758;51.992;5.890;2023-04-10T07:19:02;15.80;51.10
55828;DHT22;41758;51.992;5.890;2023-04-10T07:21:28;15.80;50.90
55828;DHT22;41758;51.992;5.890;2023-04-10T07:23:54;15.90;50.90
55828;DHT22;41758;51.992;5.890;2023-04-10T07:26:20;16.00;50.80
55828;DHT22;41758;51.992;5.890;2023-04-10T07:28:46;16.10;50.80
55828;DHT22;41758;51.992;5.890;2023-04-10T07:31:11;16.10;50.80
55828;DHT22;41758;51.992;5.890;2023-04-10T07:33:38;16.20;50.60
55828;DHT22;41758;51.992;5.890;2023-04-10T07:36:04;16.30;50.40
55828;DHT22;41758;51.992;5.890;2023-04-10T07:38:31;16.30;50.40
55828;DHT22;41758;51.992;5.890;2023-04-10T07:40:57;16.40;50.40
55828;DHT22;41758;51.992;5.890;2023-04-10T07:43:23;16.50;50.30
55828;DHT22;41758;51.992;5.890;2023-04-10T07:45:50;16.50;50.20
55828;DHT22;41758;51.992;5.890;2023-04-10T07:48:16;16.60;50.00
55828;DHT22;41758;51.992;5.890;2023-04-10T07:50:41;16.70;49.90
55828;DHT22;41758;51.992;5.890;2023-04-10T07:53:07;16.80;50.00
55828;DHT22;41758;51.992;5.890;2023-04-10T07:55:43;16.80;49.50
55828;DHT22;41758;51.992;5.890;2023-04-10T07:58:09;16.80;49.20
55828;DHT22;41758;51.992;5.890;2023-04-10T08:00:35;16.80;49.10
55828;DHT22;41758;51.992;5.890;2023-04-10T08:03:02;16.80;48.60
55828;DHT22;41758;51.992;5.890;2023-04-10T08:05:28;16.90;48.70
55828;DHT22;41758;51.992;5.890;2023-04-10T08:07:53;16.90;48.40
55828;DHT22;41758;51.992;5.890;2023-04-10T08:10:19;16.90;48.40
55828;DHT22;41758;51.992;5.890;2023-04-10T08:12:45;16.90;48.00
55828;DHT22;41758;51.992;5.890;2023-04-10T08:15:10;17.00;47.60
55828;DHT22;41758;51.992;5.890;2023-04-10T08:17:36;17.00;47.60
55828;DHT22;41758;51.992;5.890;2023-04-10T08:20:02;17.10;47.30
55828;DHT22;41758;51.992;5.890;2023-04-10T08:22:29;17.20;47.00
55828;DHT22;41758;51.992;5.890;2023-04-10T08:24:55;17.30;46.00
55828;DHT22;41758;51.992;5.890;2023-04-10T08:27:20;17.30;46.10
55828;DHT22;41758;51.992;5.890;2023-04-10T08:29:46;17.40;45.70
55828;DHT22;41758;51.992;5.890;2023-04-10T08:32:12;17.50;44.80
55828;DHT22;41758;51.992;5.890;2023-04-10T08:34:37;17.60;44.90
55828;DHT22;41758;51.992;5.890;2023-04-10T08:37:07;17.70;45.20
55828;DHT22;41758;51.992;5.890;2023-04-10T08:39:34;17.80;45.10
55828;DHT22;41758;51.992;5.890;2023-04-10T08:42:01;17.90;44.80
55828;DHT22;41758;51.992;5.890;2023-04-10T08:44:27;18.00;44.60
55828;DHT22;41758;51.992;5.890;2023-04-10T08:46:56;18.10;44.30
55828;DHT22;41758;51.992;5.890;2023-04-10T08:50:03;18.10;43.80
55828;DHT22;41758;51.992;5.890;2023-04-10T08:52:33;18.30;43.80
55828;DHT22;41758;51.992;5.890;2023-04-10T08:55:01;18.30;43.90
55828;DHT22;41758;51.992;5.890;2023-04-10T08:57:31;18.40;43.80
55828;DHT22;41758;51.992;5.890;2023-04-10T08:59:57;18.50;43.50
55828;DHT22;41758;51.992;5.890;2023-04-10T09:02:23;18.60;43.10
55828;DHT22;41758;51.992;5.890;2023-04-10T09:04:51;18.70;43.30
55828;DHT22;41758;51.992;5.890;2023-04-10T09:07:19;18.80;42.70
55828;DHT22;41758;51.992;5.890;2023-04-10T09:09:45;18.90;42.30
55828;DHT22;41758;51.992;5.890;2023-04-10T09:12:12;18.90;41.40
55828;DHT22;41758;51.992;5.890;2023-04-10T09:14:40;18.90;41.10
55828;DHT22;41758;51.992;5.890;2023-04-10T09:17:23;18.90;41.60
55828;DHT22;41758;51.992;5.890;2023-04-10T09:19:54;18.90;40.80
55828;DHT22;41758;51.992;5.890;2023-04-10T09:22:33;18.80;40.40
55828;DHT22;41758;51.992;5.890;2023-04-10T09:25:01;18.80;40.80
55828;DHT22;41758;51.992;5.890;2023-04-10T09:27:29;18.80;41.20
55828;DHT22;41758;51.992;5.890;2023-04-10T09:29:59;18.90;41.50
55828;DHT22;41758;51.992;5.890;2023-04-10T09:32:42;19.00;41.40
55828;DHT22;41758;51.992;5.890;2023-04-10T09:35:10;19.20;41.70
55828;DHT22;41758;51.992;5.890;2023-04-10T09:37:38;19.30;41.50
55828;DHT22;41758;51.992;5.890;2023-04-10T09:40:06;19.30;41.50
55828;DHT22;41758;51.992;5.890;2023-04-10T09:42:43;19.40;41.60
55828;DHT22;41758;51.992;5.890;2023-04-10T09:45:09;19.50;41.30
55828;DHT22;41758;51.992;5.890;2023-04-10T09:47:35;19.50;40.30
55828;DHT22;41758;51.992;5.890;2023-04-10T09:50:01;19.40;40.30
55828;DHT22;41758;51.992;5.890;2023-04-10T09:52:29;19.50;40.80
55828;DHT22;41758;51.992;5.890;2023-04-10T09:55:05;19.50;40.60
55828;DHT22;41758;51.992;5.890;2023-04-10T09:57:33;19.50;40.50
55828;DHT22;41758;51.992;5.890;2023-04-10T10:00:04;19.50;40.80
55828;DHT22;41758;51.992;5.890;2023-04-10T10:02:36;19.50;40.30
55828;DHT22;41758;51.992;5.890;2023-04-10T10:05:06;19.40;40.40
55828;DHT22;41758;51.992;5.890;2023-04-10T10:07:32;19.40;40.60
55828;DHT22;41758;51.992;5.890;2023-04-10T10:09:59;19.50;41.00
55828;DHT22;41758;51.992;5.890;2023-04-10T10:12:47;19.60;41.20
55828;DHT22;41758;51.992;5.890;2023-04-10T10:15:34;19.70;40.90
55828;DHT22;41758;51.992;5.890;2023-04-10T10:20:52;19.80;40.80
55828;DHT22;41758;51.992;5.890;2023-04-10T10:23:19;19.90;41.00
55828;DHT22;41758;51.992;5.890;2023-04-10T10:25:48;20.00;41.10
55828;DHT22;41758;51.992;5.890;2023-04-10T10:28:15;20.20;41.10
55828;DHT22;41758;51.992;5.890;2023-04-10T10:30:41;20.30;40.80
55828;DHT22;41758;51.992;5.890;2023-04-10T10:33:07;20.30;40.20
55828;DHT22;41758;51.992;5.890;2023-04-10T10:35:35;20.40;40.00
55828;DHT22;41758;51.992;5.890;2023-04-10T10:38:02;20.40;39.90
55828;DHT22;41758;51.992;5.890;2023-04-10T10:40:51;20.40;39.70
55828;DHT22;41758;51.992;5.890;2023-04-10T10:43:44;20.50;39.50
55828;DHT22;41758;51.992;5.890;2023-04-10T10:49:10;20.60;39.80
55828;DHT22;41758;51.992;5.890;2023-04-10T10:51:46;20.60;39.70
55828;DHT22;41758;51.992;5.890;2023-04-10T10:54:31;20.80;39.70
55828;DHT22;41758;51.992;5.890;2023-04-10T10:56:58;20.80;39.70
55828;DHT22;41758;51.992;5.890;2023-04-10T11:02:15;20.80;38.20
55828;DHT22;41758;51.992;5.890;2023-04-10T11:04:46;20.90;38.30
55828;DHT22;41758;51.992;5.890;2023-04-10T11:07:12;20.90;38.60
55828;DHT22;41758;51.992;5.890;2023-04-10T11:09:52;21.00;38.60
55828;DHT22;41758;51.992;5.890;2023-04-10T11:12:24;21.10;38.40
55828;DHT22;41758;51.992;5.890;2023-04-10T11:15:00;21.20;38.10
55828;DHT22;41758;51.992;5.890;2023-04-10T11:17:50;21.30;37.80
55828;DHT22;41758;51.992;5.890;2023-04-10T11:20:19;21.30;38.40
55828;DHT22;41758;51.992;5.890;2023-04-10T11:23:05;21.40;38.40
55828;DHT22;41758;51.992;5.890;2023-04-10T11:25:51;21.60;37.80
55828;DHT22;41758;51.992;5.890;2023-04-10T11:28:34;21.70;37.50
55828;DHT22;41758;51.992;5.890;2023-04-10T11:31:22;21.80;37.60
55828;DHT22;41758;51.992;5.890;2023-04-10T11:36:21;22.10;38.20
55828;DHT22;41758;51.992;5.890;2023-04-10T11:39:05;22.40;38.20
55828;DHT22;41758;51.992;5.890;2023-04-10T11:41:35;22.60;37.60
55828;DHT22;41758;51.992;5.890;2023-04-10T11:44:03;22.70;35.80
55828;DHT22;41758;51.992;5.890;2023-04-10T11:46:30;22.80;35.60
55828;DHT22;41758;51.992;5.890;2023-04-10T11:49:01;22.80;35.40
55828;DHT22;41758;51.992;5.890;2023-04-10T11:51:27;22.80;35.20
55828;DHT22;41758;51.992;5.890;2023-04-10T11:54:14;22.80;35.10
55828;DHT22;41758;51.992;5.890;2023-04-10T11:56:42;22.70;34.70
55828;DHT22;41758;51.992;5.890;2023-04-10T11:59:08;22.60;34.80
55828;DHT22;41758;51.992;5.890;2023-04-10T12:01:44;22.50;34.90
55828;DHT22;41758;51.992;5.890;2023-04-10T12:04:18;22.40;35.40
55828;DHT22;41758;51.992;5.890;2023-04-10T12:06:49;22.40;35.40
55828;DHT22;41758;51.992;5.890;2023-04-10T12:09:17;22.30;35.60
55828;DHT22;41758;51.992;5.890;2023-04-10T12:11:50;22.30;35.80
55828;DHT22;41758;51.992;5.890;2023-04-10T12:14:18;22.30;35.80
55828;DHT22;41758;51.992;5.890;2023-04-10T12:16:44;22.30;35.90
55828;DHT22;41758;51.992;5.890;2023-04-10T12:19:11;22.30;35.90
55828;DHT22;41758;51.992;5.890;2023-04-10T12:21:38;22.30;36.00
55828;DHT22;41758;51.992;5.890;2023-04-10T12:24:05;22.30;36.00
55828;DHT22;41758;51.992;5.890;2023-04-10T12:26:31;22.40;36.40
55828;DHT22;41758;51.992;5.890;2023-04-10T12:28:57;22.40;36.20
55828;DHT22;41758;51.992;5.890;2023-04-10T12:31:30;22.50;36.30
55828;DHT22;41758;51.992;5.890;2023-04-10T12:33:57;22.60;36.00
55828;DHT22;41758;51.992;5.890;2023-04-10T12:36:25;22.60;35.60
55828;DHT22;41758;51.992;5.890;2023-04-10T12:38:55;22.60;35.20
55828;DHT22;41758;51.992;5.890;2023-04-10T12:41:22;22.60;35.30
55828;DHT22;41758;51.992;5.890;2023-04-10T12:43:49;22.60;35.20
55828;DHT22;41758;51.992;5.890;2023-04-10T12:46:28;22.70;35.00
55828;DHT22;41758;51.992;5.890;2023-04-10T12:48:54;22.70;34.70
55828;DHT22;41758;51.992;5.890;2023-04-10T12:54:08;23.00;34.30
55828;DHT22;41758;51.992;5.890;2023-04-10T12:56:44;23.00;34.10
55828;DHT22;41758;51.992;5.890;2023-04-10T12:59:11;22.90;34.00
55828;DHT22;41758;51.992;5.890;2023-04-10T13:01:38;22.70;33.80
55828;DHT22;41758;51.992;5.890;2023-04-10T13:04:04;22.60;34.10
55828;DHT22;41758;51.992;5.890;2023-04-10T13:06:30;22.50;34.40
55828;DHT22;41758;51.992;5.890;2023-04-10T13:08:55;22.40;34.60
55828;DHT22;41758;51.992;5.890;2023-04-10T13:11:21;22.30;34.70
55828;DHT22;41758;51.992;5.890;2023-04-10T13:13:48;22.20;35.00
55828;DHT22;41758;51.992;5.890;2023-04-10T13:16:15;22.10;34.90
55828;DHT22;41758;51.992;5.890;2023-04-10T13:18:40;22.00;35.10
55828;DHT22;41758;51.992;5.890;2023-04-10T13:21:06;21.90;35.40
55828;DHT22;41758;51.992;5.890;2023-04-10T13:23:32;21.80;35.70
55828;DHT22;41758;51.992;5.890;2023-04-10T13:25:58;21.70;35.80
55828;DHT22;41758;51.992;5.890;2023-04-10T13:28:23;21.70;35.90
55828;DHT22;41758;51.992;5.890;2023-04-10T13:30:50;21.60;36.10
55828;DHT22;41758;51.992;5.890;2023-04-10T13:33:16;21.50;36.40
55828;DHT22;41758;51.992;5.890;2023-04-10T13:35:42;21.50;36.20
55828;DHT22;41758;51.992;5.890;2023-04-10T13:38:08;21.40;36.40
55828;DHT22;41758;51.992;5.890;2023-04-10T13:40:36;21.30;36.60
55828;DHT22;41758;51.992;5.890;2023-04-10T13:43:01;21.30;36.70
55828;DHT22;41758;51.992;5.890;2023-04-10T13:45:27;21.30;36.80
55828;DHT22;41758;51.992;5.890;2023-04-10T13:47:53;21.20;36.90
55828;DHT22;41758;51.992;5.890;2023-04-10T13:50:19;21.20;36.90
55828;DHT22;41758;51.992;5.890;2023-04-10T13:52:45;21.20;36.90
55828;DHT22;41758;51.992;5.890;2023-04-10T13:55:10;21.10;36.90
55828;DHT22;41758;51.992;5.890;2023-04-10T13:57:36;21.20;37.10
55828;DHT22;41758;51.992;5.890;2023-04-10T14:00:02;21.10;37.20
55828;DHT22;41758;51.992;5.890;2023-04-10T14:02:38;21.10;37.20
55828;DHT22;41758;51.992;5.890;2023-04-10T14:05:04;21.10;37.30
55828;DHT22;41758;51.992;5.890;2023-04-10T14:07:30;21.10;37.30
55828;DHT22;41758;51.992;5.890;2023-04-10T14:09:58;21.00;37.40
55828;DHT22;41758;51.992;5.890;2023-04-10T14:12:23;21.10;37.50
55828;DHT22;41758;51.992;5.890;2023-04-10T14:14:49;21.20;37.50
55828;DHT22;41758;51.992;5.890;2023-04-10T14:17:15;21.30;37.50
55828;DHT22;41758;51.992;5.890;2023-04-10T14:19:41;21.30;37.40
55828;DHT22;41758;51.992;5.890;2023-04-10T14:22:07;21.40;37.30
55828;DHT22;41758;51.992;5.890;2023-04-10T14:24:33;21.50;37.30
55828;DHT22;41758;51.992;5.890;2023-04-10T14:26:59;21.50;37.10
55828;DHT22;41758;51.992;5.890;2023-04-10T14:29:29;21.60;37.20
55828;DHT22;41758;51.992;5.890;2023-04-10T14:31:56;21.60;37.00
55828;DHT22;41758;51.992;5.890;2023-04-10T14:34:22;21.60;36.90
55828;DHT22;41758;51.992;5.890;2023-04-10T14:36:47;21.70;36.90
55828;DHT22;41758;51.992;5.890;2023-04-10T14:39:13;21.70;37.00
55828;DHT22;41758;51.992;5.890;2023-04-10T14:41:39;21.70;36.90
55828;DHT22;41758;51.992;5.890;2023-04-10T14:44:05;21.70;36.80
55828;DHT22;41758;51.992;5.890;2023-04-10T14:46:30;21.70;36.50
55828;DHT22;41758;51.992;5.890;2023-04-10T14:48:56;21.70;36.50
55828;DHT22;41758;51.992;5.890;2023-04-10T14:51:22;21.70;36.60
55828;DHT22;41758;51.992;5.890;2023-04-10T14:53:47;21.60;36.70
55828;DHT22;41758;51.992;5.890;2023-04-10T14:56:16;21.60;37.20
55828;DHT22;41758;51.992;5.890;2023-04-10T14:58:42;21.40;37.80
55828;DHT22;41758;51.992;5.890;2023-04-10T15:01:11;21.30;38.60
55828;DHT22;41758;51.992;5.890;2023-04-10T15:03:38;21.00;39.90
55828;DHT22;41758;51.992;5.890;2023-04-10T15:06:04;20.60;41.30
55828;DHT22;41758;51.992;5.890;2023-04-10T15:08:30;20.30;42.10
55828;DHT22;41758;51.992;5.890;2023-04-10T15:10:55;19.90;43.50
55828;DHT22;41758;51.992;5.890;2023-04-10T15:13:21;19.60;44.30
55828;DHT22;41758;51.992;5.890;2023-04-10T15:15:47;19.30;46.20
55828;DHT22;41758;51.992;5.890;2023-04-10T15:18:14;19.00;47.60
55828;DHT22;41758;51.992;5.890;2023-04-10T15:20:41;18.70;49.50
55828;DHT22;41758;51.992;5.890;2023-04-10T15:23:07;18.30;50.50
55828;DHT22;41758;51.992;5.890;2023-04-10T15:25:33;18.00;51.40
55828;DHT22;41758;51.992;5.890;2023-04-10T15:27:58;17.80;52.40
55828;DHT22;41758;51.992;5.890;2023-04-10T15:30:24;17.60;54.80
55828;DHT22;41758;51.992;5.890;2023-04-10T15:32:50;17.40;56.30
55828;DHT22;41758;51.992;5.890;2023-04-10T15:35:16;17.20;57.00
55828;DHT22;41758;51.992;5.890;2023-04-10T15:37:41;17.00;57.70
55828;DHT22;41758;51.992;5.890;2023-04-10T15:40:08;16.90;58.50
55828;DHT22;41758;51.992;5.890;2023-04-10T15:42:35;16.80;59.60
55828;DHT22;41758;51.992;5.890;2023-04-10T15:45:01;16.80;60.60
55828;DHT22;41758;51.992;5.890;2023-04-10T15:47:28;16.70;61.60
55828;DHT22;41758;51.992;5.890;2023-04-10T15:49:57;16.60;62.10
55828;DHT22;41758;51.992;5.890;2023-04-10T15:52:23;16.60;63.00
55828;DHT22;41758;51.992;5.890;2023-04-10T15:54:49;16.60;63.80
55828;DHT22;41758;51.992;5.890;2023-04-10T15:57:15;16.60;64.30
55828;DHT22;41758;51.992;5.890;2023-04-10T15:59:41;16.60;64.50
55828;DHT22;41758;51.992;5.890;2023-04-10T16:02:07;16.60;64.90
55828;DHT22;41758;51.992;5.890;2023-04-10T16:04:33;16.60;65.00
55828;DHT22;41758;51.992;5.890;2023-04-10T16:06:59;16.50;65.40
55828;DHT22;41758;51.992;5.890;2023-04-10T16:09:25;16.50;65.70